createdAt,value
2018-09-20T00:00:26.432Z,4.23
2018-09-20T00:02:56.083Z,4.20
2018-09-20T00:05:25.200Z,3.93
2018-09-20T00:07:54.674Z,3.63
2018-09-20T00:10:24.471Z,4.37
2018-09-20T00:12:53.703Z,4.70
2018-09-20T00:15:23.277Z,4.37
2018-09-20T00:17:53.317Z,4.30
2018-09-20T00:20:23.055Z,4.07
2018-09-20T00:22:52.393Z,3.67
2018-09-20T00:25:21.632Z,4.80
2018-09-20T00:27:51.207Z,3.30
2018-09-20T00:30:20.689Z,4.53
2018-09-20T00:32:50.476Z,4.00
2018-09-20T00:35:19.952Z,4.80
2018-09-20T00:37:48.752Z,4.53
2018-09-20T00:40:17.640Z,4.77
2018-09-20T00:42:46.943Z,4.60
2018-09-20T00:45:16.252Z,4.60
2018-09-20T00:47:45.413Z,4.40
2018-09-20T00:50:14.225Z,5.17
2018-09-20T00:52:43.233Z,4.33
2018-09-20T00:55:12.589Z,4.20
2018-09-20T00:57:42.312Z,3.60
2018-09-20T01:00:11.647Z,5.30
2018-09-20T01:02:40.769Z,3.50
2018-09-20T01:05:10.378Z,3.97
2018-09-20T01:07:39.534Z,4.60
2018-09-20T01:10:08.344Z,4.97
2018-09-20T01:12:37.145Z,6.63
2018-09-20T01:15:08.133Z,5.50
2018-09-20T01:17:38.045Z,5.30
2018-09-20T01:20:07.524Z,5.20
2018-09-20T01:22:36.333Z,4.70
2018-09-20T01:25:05.147Z,4.63
2018-09-20T01:27:33.953Z,4.50
2018-09-20T01:30:02.722Z,5.37
2018-09-20T01:32:32.573Z,4.17
2018-09-20T01:35:01.933Z,4.60
2018-09-20T01:37:31.006Z,4.10
2018-09-20T01:40:00.573Z,4.20
2018-09-20T01:42:30.177Z,4.77
2018-09-20T01:44:59.267Z,4.73
2018-09-20T01:47:28.553Z,3.63
2018-09-20T01:49:58.214Z,5.10
2018-09-20T01:52:27.772Z,4.93
2018-09-20T01:54:56.908Z,3.40
2018-09-20T01:57:27.010Z,4.30
2018-09-20T01:59:56.138Z,3.63
2018-09-20T02:02:25.409Z,4.40
2018-09-20T02:04:54.770Z,4.00
2018-09-20T02:07:24.029Z,4.77
2018-09-20T02:09:54.158Z,4.30
2018-09-20T02:12:23.058Z,5.00
2018-09-20T02:14:52.656Z,4.53
2018-09-20T02:17:22.033Z,5.83
2018-09-20T02:19:51.190Z,4.13
2018-09-20T02:22:20.615Z,5.27
2018-09-20T02:24:49.810Z,5.37
2018-09-20T02:27:18.958Z,4.30
2018-09-20T02:29:48.662Z,4.77
2018-09-20T02:32:18.665Z,4.70
2018-09-20T02:34:48.209Z,3.77
2018-09-20T02:37:17.302Z,4.23
2018-09-20T02:39:46.600Z,4.87
2018-09-20T02:42:15.798Z,4.30
2018-09-20T02:44:44.868Z,4.83
2018-09-20T02:47:14.586Z,3.80
2018-09-20T02:49:44.210Z,3.63
2018-09-20T02:52:13.172Z,5.57
2018-09-20T02:54:42.175Z,5.47
2018-09-20T02:57:11.401Z,4.37
2018-09-20T02:59:40.876Z,4.77
2018-09-20T03:02:10.297Z,5.30
2018-09-20T03:04:39.235Z,6.00
2018-09-20T03:07:08.329Z,4.50
2018-09-20T03:09:37.528Z,4.40
2018-09-20T03:12:06.889Z,4.20
2018-09-20T03:14:36.069Z,4.30
2018-09-20T03:17:05.741Z,4.87
2018-09-20T03:19:35.766Z,5.13
2018-09-20T03:22:04.866Z,5.30
2018-09-20T03:24:34.304Z,5.50
2018-09-20T03:27:03.578Z,4.93
2018-09-20T03:29:32.391Z,4.43
2018-09-20T03:32:01.496Z,5.23
2018-09-20T03:34:31.000Z,4.87
2018-09-20T03:36:59.783Z,5.07
2018-09-20T03:39:29.306Z,5.00
2018-09-20T03:41:58.108Z,5.40
2018-09-20T03:44:26.916Z,4.73
2018-09-20T03:46:56.061Z,5.27
2018-09-20T03:49:25.566Z,4.97
2018-09-20T03:51:54.458Z,4.90
2018-09-20T03:54:23.541Z,5.20
2018-09-20T03:56:52.493Z,6.00
2018-09-20T03:59:21.629Z,6.23
2018-09-20T04:01:51.029Z,4.73
2018-09-20T04:04:19.835Z,5.27
2018-09-20T04:06:48.628Z,5.40
2018-09-20T04:09:17.565Z,5.47
2018-09-20T04:11:46.376Z,6.00
2018-09-20T04:14:15.244Z,5.20
2018-09-20T04:16:44.337Z,5.50
2018-09-20T04:19:13.210Z,5.20
2018-09-20T04:21:42.524Z,5.77
2018-09-20T04:24:11.603Z,6.07
2018-09-20T04:26:40.804Z,4.10
2018-09-20T04:29:11.209Z,4.80
2018-09-20T04:31:41.191Z,5.00
2018-09-20T04:34:10.665Z,4.83
2018-09-20T04:36:39.768Z,5.70
2018-09-20T04:39:10.639Z,5.73
2018-09-20T04:41:39.825Z,5.50
2018-09-20T04:44:09.089Z,5.67
2018-09-20T04:46:38.134Z,6.00
2018-09-20T04:49:07.752Z,4.47
2018-09-20T04:51:37.285Z,4.97
2018-09-20T04:54:06.496Z,5.47
2018-09-20T04:56:35.782Z,4.80
2018-09-20T04:59:05.028Z,5.20
2018-09-20T05:01:34.299Z,5.70
2018-09-20T05:04:04.069Z,6.30
2018-09-20T05:06:33.489Z,5.63
2018-09-20T05:09:03.182Z,4.90
2018-09-20T05:11:32.720Z,5.57
2018-09-20T05:14:01.945Z,5.80
2018-09-20T05:16:31.378Z,5.37
2018-09-20T05:19:00.643Z,4.90
2018-09-20T05:21:29.792Z,4.83
2018-09-20T05:23:58.803Z,5.37
2018-09-20T05:26:28.481Z,5.27
2018-09-20T05:28:57.806Z,5.60
2018-09-20T05:31:27.124Z,4.80
2018-09-20T05:33:56.350Z,5.70
2018-09-20T05:36:26.142Z,4.10
2018-09-20T05:38:55.405Z,5.00
2018-09-20T05:41:24.194Z,6.03
2018-09-20T05:43:53.121Z,6.37
2018-09-20T05:46:22.307Z,5.80
2018-09-20T05:48:51.593Z,6.17
2018-09-20T05:51:20.913Z,6.00
2018-09-20T05:53:50.144Z,5.43
2018-09-20T05:56:23.711Z,5.97
2018-09-20T05:58:52.775Z,4.97
2018-09-20T06:01:22.209Z,6.03
2018-09-20T06:03:51.440Z,5.97
2018-09-20T06:06:20.823Z,7.70
2018-09-20T06:08:50.332Z,6.43
2018-09-20T06:11:19.492Z,5.93
2018-09-20T06:13:48.812Z,9.30
2018-09-20T06:16:19.383Z,6.50
2018-09-20T06:18:51.456Z,6.57
2018-09-20T06:21:21.404Z,6.97
2018-09-20T06:23:50.706Z,7.40
2018-09-20T06:26:20.786Z,6.93
2018-09-20T06:28:49.973Z,6.23
2018-09-20T06:31:19.592Z,8.23
2018-09-20T06:33:48.896Z,6.27
2018-09-20T06:36:18.024Z,6.07
2018-09-20T06:38:46.898Z,6.33
2018-09-20T06:41:15.764Z,6.87
2018-09-20T06:43:44.583Z,7.97
2018-09-20T06:46:13.401Z,7.17
2018-09-20T06:48:42.280Z,6.63
2018-09-20T06:51:11.629Z,6.00
2018-09-20T06:53:40.421Z,5.30
2018-09-20T06:56:09.224Z,5.90
2018-09-20T06:58:38.069Z,6.70
2018-09-20T07:01:06.904Z,7.80
2018-09-20T07:03:35.715Z,7.10
2018-09-20T07:06:04.891Z,5.47
2018-09-20T07:08:33.685Z,5.80
2018-09-20T07:11:03.142Z,6.47
2018-09-20T07:13:32.333Z,7.30
2018-09-20T07:16:01.218Z,6.67
2018-09-20T07:18:30.046Z,5.90
2018-09-20T07:20:59.188Z,6.53
2018-09-20T07:23:28.015Z,5.77
2018-09-20T07:25:56.855Z,6.33
2018-09-20T07:28:25.959Z,5.10
2018-09-20T07:30:55.065Z,9.17
2018-09-20T07:33:23.929Z,6.07
2018-09-20T07:35:52.825Z,6.77
2018-09-20T07:38:21.860Z,6.07
2018-09-20T07:40:50.970Z,6.40
2018-09-20T07:43:21.696Z,6.27
2018-09-20T07:45:50.709Z,5.97
2018-09-20T07:48:20.111Z,5.00
2018-09-20T07:50:49.608Z,5.63
2018-09-20T07:53:19.365Z,5.90
2018-09-20T07:55:48.796Z,5.37
2018-09-20T07:58:48.054Z,5.17
2018-09-20T08:01:17.349Z,5.93
2018-09-20T08:03:46.525Z,7.37
2018-09-20T08:06:15.396Z,5.40
2018-09-20T08:08:44.613Z,5.23
2018-09-20T08:11:15.580Z,6.70
2018-09-20T08:13:44.422Z,5.30
2018-09-20T08:16:13.331Z,6.53
2018-09-20T08:18:42.218Z,7.03
2018-09-20T08:21:11.396Z,5.70
2018-09-20T08:23:40.245Z,4.73
2018-09-20T08:26:09.420Z,5.27
2018-09-20T08:28:38.977Z,4.13
2018-09-20T08:31:08.146Z,3.90
2018-09-20T08:33:36.994Z,4.33
2018-09-20T08:36:06.099Z,4.80
2018-09-20T08:38:35.211Z,4.80
2018-09-20T08:41:08.765Z,3.70
2018-09-20T08:43:38.362Z,4.33
2018-09-20T08:46:07.531Z,3.67
2018-09-20T08:48:36.477Z,3.70
2018-09-20T08:51:06.421Z,3.30
2018-09-20T08:53:35.590Z,3.10
2018-09-20T08:56:05.285Z,3.20
2018-09-20T08:58:34.582Z,4.10
2018-09-20T09:01:04.514Z,3.73
2018-09-20T09:03:34.220Z,3.30
2018-09-20T09:06:03.053Z,3.43
2018-09-20T09:08:32.142Z,3.63
2018-09-20T09:11:00.996Z,3.90
2018-09-20T09:13:29.833Z,3.60
2018-09-20T09:15:59.482Z,4.30
2018-09-20T09:18:28.350Z,4.40
2018-09-20T09:20:57.598Z,3.83
2018-09-20T09:23:26.410Z,5.03
2018-09-20T09:25:55.229Z,4.10
2018-09-20T09:28:24.173Z,3.80
2018-09-20T09:30:53.015Z,4.33
2018-09-20T09:33:22.544Z,4.27
2018-09-20T09:35:51.924Z,4.30
2018-09-20T09:38:21.054Z,4.27
2018-09-20T09:40:50.464Z,5.40
2018-09-20T09:43:19.689Z,4.53
2018-09-20T09:45:48.484Z,4.30
2018-09-20T09:48:17.324Z,4.57
2018-09-20T09:50:46.503Z,5.07
2018-09-20T09:53:15.353Z,4.27
2018-09-20T09:55:44.550Z,5.20
2018-09-20T09:58:13.363Z,5.30
2018-09-20T10:00:42.937Z,4.70
2018-09-20T10:03:11.780Z,5.07
2018-09-20T10:05:40.938Z,4.57
2018-09-20T10:08:10.152Z,3.80
2018-09-20T10:10:39.317Z,4.10
2018-09-20T10:13:15.044Z,4.50
2018-09-20T10:15:44.499Z,6.10
2018-09-20T10:18:13.359Z,3.90
2018-09-20T10:20:42.525Z,5.10
2018-09-20T10:23:11.883Z,4.07
2018-09-20T10:25:41.092Z,4.87
2018-09-20T10:28:10.102Z,4.73
2018-09-20T10:30:39.376Z,4.90
2018-09-20T10:33:08.237Z,4.53
2018-09-20T10:35:37.397Z,4.00
2018-09-20T10:38:06.448Z,4.90
2018-09-20T10:40:35.587Z,5.57
2018-09-20T10:43:04.431Z,3.73
2018-09-20T10:45:33.636Z,4.10
2018-09-20T10:48:02.722Z,4.23
2018-09-20T10:50:31.586Z,4.00
2018-09-20T10:53:00.470Z,4.73
2018-09-20T10:55:29.707Z,4.53
2018-09-20T10:57:59.104Z,4.10
2018-09-20T11:00:28.216Z,4.73
2018-09-20T11:02:57.899Z,5.73
2018-09-20T11:05:26.750Z,4.43
2018-09-20T11:07:56.014Z,4.57
2018-09-20T11:10:25.203Z,4.60
2018-09-20T11:12:54.325Z,5.50
2018-09-20T11:15:24.065Z,4.13
2018-09-20T11:17:53.251Z,5.13
2018-09-20T11:20:22.663Z,4.40
2018-09-20T11:22:51.830Z,4.40
2018-09-20T11:25:21.041Z,4.03
2018-09-20T11:27:51.000Z,4.70
2018-09-20T11:30:20.382Z,4.50
2018-09-20T11:32:49.517Z,3.33
2018-09-20T11:35:18.636Z,4.27
2018-09-20T11:37:47.832Z,4.30
2018-09-20T11:40:16.939Z,3.37
2018-09-20T11:42:45.846Z,3.70
2018-09-20T11:45:14.928Z,4.23
2018-09-20T11:47:44.120Z,3.03
2018-09-20T11:50:13.219Z,3.53
2018-09-20T11:52:42.623Z,4.63
2018-09-20T11:55:11.448Z,3.10
2018-09-20T11:57:40.781Z,3.80
2018-09-20T12:00:09.952Z,4.03
2018-09-20T12:02:39.101Z,3.30
2018-09-20T12:05:08.345Z,3.77
2018-09-20T12:07:37.128Z,3.77
2018-09-20T12:10:06.361Z,7.03
2018-09-20T12:12:35.521Z,3.60
2018-09-20T12:15:04.700Z,3.80
2018-09-20T12:17:33.537Z,3.27
2018-09-20T12:20:02.674Z,3.70
2018-09-20T12:22:31.868Z,2.90
2018-09-20T12:25:07.019Z,3.73
2018-09-20T12:27:35.860Z,3.30
2018-09-20T12:30:06.193Z,3.20
2018-09-20T12:32:35.662Z,3.87
2018-09-20T12:35:05.186Z,2.80
2018-09-20T12:37:35.885Z,4.30
2018-09-20T12:40:05.723Z,3.70
2018-09-20T12:42:34.763Z,3.23
2018-09-20T12:45:03.581Z,3.10
2018-09-20T12:47:32.960Z,3.57
2018-09-20T12:50:01.806Z,2.77
2018-09-20T12:52:31.098Z,2.50
2018-09-20T12:55:00.564Z,3.90
2018-09-20T12:57:29.441Z,2.60
2018-09-20T12:59:58.260Z,2.90
2018-09-20T13:02:27.139Z,4.00
2018-09-20T13:04:56.025Z,3.80
2018-09-20T13:07:25.123Z,3.40
2018-09-20T13:09:53.956Z,3.07
2018-09-20T13:12:22.756Z,2.83
2018-09-20T13:14:51.639Z,3.20
2018-09-20T13:17:20.499Z,3.13
2018-09-20T13:19:49.742Z,3.47
2018-09-20T13:22:19.039Z,2.87
2018-09-20T13:24:48.623Z,3.20
2018-09-20T13:27:17.813Z,3.03
2018-09-20T13:29:47.294Z,3.13
2018-09-20T13:32:16.176Z,4.87
2018-09-20T13:34:45.612Z,2.77
2018-09-20T13:37:14.533Z,3.73
2018-09-20T13:39:43.334Z,3.10
2018-09-20T13:42:12.163Z,2.83
2018-09-20T13:44:40.978Z,2.30
2018-09-20T13:47:10.510Z,2.50
2018-09-20T13:49:39.593Z,3.40
2018-09-20T13:52:08.433Z,5.37
2018-09-20T13:54:37.390Z,3.10
2018-09-20T13:57:06.325Z,2.10
2018-09-20T13:59:35.545Z,2.63
2018-09-20T14:02:04.897Z,2.80
2018-09-20T14:04:34.184Z,2.73
2018-09-20T14:07:03.025Z,3.10
2018-09-20T14:09:32.206Z,2.90
2018-09-20T14:12:02.313Z,1.90
2018-09-20T14:14:31.281Z,3.97
2018-09-20T14:17:00.541Z,2.77
2018-09-20T14:19:29.341Z,4.13
2018-09-20T14:21:58.484Z,3.13
2018-09-20T14:24:27.706Z,2.80
2018-09-20T14:26:56.656Z,2.80
2018-09-20T14:29:25.607Z,2.33
2018-09-20T14:31:54.963Z,3.17
2018-09-20T14:34:24.103Z,2.57
2018-09-20T14:36:52.990Z,2.63
2018-09-20T14:39:21.852Z,2.40
2018-09-20T14:41:50.953Z,3.40
2018-09-20T14:44:19.889Z,4.10
2018-09-20T14:46:48.971Z,2.97
2018-09-20T14:49:18.397Z,2.63
2018-09-20T14:51:47.565Z,2.57
2018-09-20T14:54:16.895Z,2.40
2018-09-20T14:56:45.966Z,2.77
2018-09-20T14:59:15.049Z,2.33
2018-09-20T15:01:47.356Z,2.87
2018-09-20T15:04:16.204Z,2.93
2018-09-20T15:06:45.301Z,2.80
2018-09-20T15:09:14.248Z,2.90
2018-09-20T15:11:43.415Z,2.80
2018-09-20T15:14:13.257Z,1.83
2018-09-20T15:16:42.357Z,2.73
2018-09-20T15:19:11.420Z,2.80
2018-09-20T15:21:40.849Z,2.13
2018-09-20T15:24:09.678Z,2.20
2018-09-20T15:26:38.519Z,2.00
2018-09-20T15:29:07.897Z,2.97
2018-09-20T15:31:37.273Z,3.33
2018-09-20T15:34:06.390Z,2.70
2018-09-20T15:36:41.567Z,2.90
2018-09-20T15:39:11.555Z,3.20
2018-09-20T15:41:40.568Z,3.07
2018-09-20T15:44:10.363Z,2.73
2018-09-20T15:46:39.241Z,3.10
2018-09-20T15:49:08.362Z,2.70
2018-09-20T15:51:37.164Z,2.80
2018-09-20T15:54:06.201Z,2.77
2018-09-20T15:56:35.634Z,3.20
2018-09-20T15:59:04.474Z,2.80
2018-09-20T16:01:37.292Z,2.90
2018-09-20T16:04:07.430Z,3.30
2018-09-20T16:06:42.801Z,2.20
2018-09-20T16:09:12.207Z,3.10
2018-09-20T16:11:41.234Z,3.87
2018-09-20T16:14:10.476Z,3.17
2018-09-20T16:16:39.592Z,2.60
2018-09-20T16:19:08.434Z,2.60
2018-09-20T16:21:37.575Z,3.40
2018-09-20T16:24:06.796Z,2.70
2018-09-20T16:26:35.907Z,3.30
2018-09-20T16:29:16.944Z,3.17
2018-09-20T16:32:03.225Z,2.97
2018-09-20T16:36:49.410Z,2.73
2018-09-20T16:39:21.480Z,2.30
2018-09-20T16:41:54.278Z,2.97
2018-09-20T16:44:24.928Z,3.00
2018-09-20T16:46:54.005Z,3.20
2018-09-20T16:49:23.481Z,2.83
2018-09-20T16:51:54.804Z,3.40
2018-09-20T16:54:24.054Z,3.60
2018-09-20T16:56:52.877Z,2.60
2018-09-20T16:59:22.101Z,2.50
2018-09-20T17:01:51.254Z,3.27
2018-09-20T17:04:20.367Z,2.80
2018-09-20T17:06:49.569Z,2.50
2018-09-20T17:09:18.348Z,2.20
2018-09-20T17:11:47.219Z,2.30
2018-09-20T17:14:16.370Z,2.70
2018-09-20T17:16:45.553Z,2.77
2018-09-20T17:19:14.336Z,3.00
2018-09-20T17:21:43.410Z,3.30
2018-09-20T17:24:12.517Z,2.43
2018-09-20T17:26:41.909Z,2.60
2018-09-20T17:29:11.290Z,4.90
2018-09-20T17:31:40.401Z,5.20
2018-09-20T17:34:09.225Z,3.40
2018-09-20T17:36:39.095Z,3.70
2018-09-20T17:39:12.235Z,2.90
2018-09-20T17:41:43.861Z,4.00
2018-09-20T17:44:12.933Z,2.57
2018-09-20T17:46:41.902Z,4.70
2018-09-20T17:49:10.755Z,3.13
2018-09-20T17:51:40.348Z,2.83
2018-09-20T17:54:09.642Z,2.60
2018-09-20T17:56:39.499Z,2.30
2018-09-20T17:59:08.807Z,2.43
2018-09-20T18:01:37.949Z,2.40
2018-09-20T18:04:06.874Z,2.40
2018-09-20T18:06:35.736Z,2.47
2018-09-20T18:09:06.570Z,2.70
2018-09-20T18:11:35.518Z,3.10
2018-09-20T18:14:04.456Z,3.20
2018-09-20T18:16:33.749Z,2.53
2018-09-20T18:19:05.149Z,2.67
2018-09-20T18:21:34.298Z,2.53
2018-09-20T18:24:03.084Z,3.57
2018-09-20T18:26:32.910Z,4.07
2018-09-20T18:29:02.341Z,3.37
2018-09-20T18:31:31.516Z,5.03
2018-09-20T18:34:00.619Z,5.33
2018-09-20T18:36:30.681Z,4.87
2018-09-20T18:39:00.225Z,5.93
2018-09-20T18:41:29.380Z,4.40
2018-09-20T18:44:05.078Z,3.20
2018-09-20T18:46:33.929Z,2.50
2018-09-20T18:49:02.815Z,2.57
2018-09-20T18:51:31.664Z,3.90
2018-09-20T18:54:00.890Z,3.57
2018-09-20T18:56:30.349Z,3.30
2018-09-20T18:58:59.175Z,2.80
2018-09-20T19:01:28.000Z,4.40
2018-09-20T19:03:57.418Z,4.57
2018-09-20T19:06:26.621Z,4.50
2018-09-20T19:08:56.108Z,4.10
2018-09-20T19:11:25.289Z,5.17
2018-09-20T19:13:54.156Z,4.27
2018-09-20T19:16:23.346Z,3.40
2018-09-20T19:18:52.480Z,3.83
2018-09-20T19:21:21.377Z,4.80
2018-09-20T19:23:50.224Z,3.40
2018-09-20T19:26:19.351Z,3.17
2018-09-20T19:28:48.637Z,4.37
2018-09-20T19:31:17.579Z,2.70
2018-09-20T19:33:47.419Z,3.13
2018-09-20T19:36:16.233Z,3.77
2018-09-20T19:38:45.109Z,2.97
2018-09-20T19:41:14.166Z,3.50
2018-09-20T19:43:42.993Z,3.60
2018-09-20T19:46:11.826Z,2.50
2018-09-20T19:48:40.702Z,3.90
2018-09-20T19:51:09.562Z,3.07
2018-09-20T19:53:38.772Z,2.70
2018-09-20T19:56:08.648Z,3.30
2018-09-20T19:58:37.748Z,2.63
2018-09-20T20:01:06.880Z,2.67
2018-09-20T20:03:35.892Z,4.03
2018-09-20T20:06:05.267Z,3.40
2018-09-20T20:08:34.223Z,2.90
2018-09-20T20:11:03.332Z,3.27
2018-09-20T20:13:32.519Z,2.83
2018-09-20T20:16:01.421Z,2.83
2018-09-20T20:18:30.773Z,2.83
2018-09-20T20:20:59.635Z,2.67
2018-09-20T20:23:29.021Z,2.80
2018-09-20T20:25:58.269Z,4.47
2018-09-20T20:28:27.381Z,2.93
2018-09-20T20:30:56.257Z,3.80
2018-09-20T20:33:25.714Z,2.80
2018-09-20T20:35:54.567Z,3.10
2018-09-20T20:38:23.423Z,3.33
2018-09-20T20:40:54.324Z,2.60
2018-09-20T20:43:23.308Z,2.60
2018-09-20T20:45:52.537Z,2.70
2018-09-20T20:48:21.353Z,3.50
2018-09-20T20:50:50.532Z,3.20
2018-09-20T20:53:19.684Z,3.20
2018-09-20T20:55:48.936Z,2.63
2018-09-20T20:58:19.111Z,2.80
2018-09-20T21:00:47.961Z,2.37
2018-09-20T21:03:17.052Z,2.77
2018-09-20T21:05:45.895Z,2.77
2018-09-20T21:08:15.027Z,3.13
2018-09-20T21:10:44.083Z,3.37
2018-09-20T21:13:12.988Z,2.70
2018-09-20T21:15:42.445Z,3.57
2018-09-20T21:18:11.539Z,2.47
2018-09-20T21:20:40.688Z,2.50
2018-09-20T21:23:09.856Z,3.40
2018-09-20T21:25:39.051Z,2.93
2018-09-20T21:28:09.237Z,2.70
2018-09-20T21:30:38.518Z,3.07
2018-09-20T21:33:07.567Z,3.23
2018-09-20T21:35:36.681Z,3.53
2018-09-20T21:38:06.005Z,3.03
2018-09-20T21:40:35.138Z,3.13
2018-09-20T21:43:04.338Z,3.40
2018-09-20T21:45:33.148Z,2.73
2018-09-20T21:48:03.266Z,3.03
2018-09-20T21:50:32.388Z,3.13
2018-09-20T21:53:01.755Z,3.10
2018-09-20T21:55:30.914Z,2.70
2018-09-20T21:58:00.049Z,2.57
2018-09-20T22:00:29.228Z,3.50
2018-09-20T22:03:01.990Z,2.97
2018-09-20T22:05:32.705Z,2.77
2018-09-20T22:08:01.614Z,3.23
2018-09-20T22:10:30.810Z,2.43
2018-09-20T22:12:59.656Z,2.83
2018-09-20T22:15:30.460Z,2.63
2018-09-20T22:17:59.836Z,2.40
2018-09-20T22:20:30.190Z,2.47
2018-09-20T22:22:59.077Z,3.07
2018-09-20T22:25:27.891Z,3.10
2018-09-20T22:28:00.613Z,2.83
2018-09-20T22:30:29.610Z,2.97
2018-09-20T22:32:58.437Z,3.13
2018-09-20T22:35:27.660Z,2.80
2018-09-20T22:37:57.255Z,2.40
2018-09-20T22:40:26.712Z,2.67
2018-09-20T22:42:55.801Z,3.10
2018-09-20T22:45:25.270Z,3.00
2018-09-20T22:47:54.165Z,2.87
2018-09-20T22:50:23.072Z,3.03
2018-09-20T22:52:52.035Z,3.03
2018-09-20T22:55:21.144Z,2.60
2018-09-20T22:57:50.284Z,3.37
2018-09-20T23:00:25.178Z,3.30
2018-09-20T23:02:55.632Z,2.83
2018-09-20T23:05:25.440Z,2.70
2018-09-20T23:07:54.329Z,3.53
2018-09-20T23:10:23.345Z,2.80
2018-09-20T23:12:52.904Z,3.10
2018-09-20T23:15:22.085Z,3.10
2018-09-20T23:17:50.951Z,2.30
2018-09-20T23:20:19.901Z,2.83
2018-09-20T23:22:49.055Z,2.53
2018-09-20T23:25:18.643Z,3.30
2018-09-20T23:27:47.537Z,2.30
2018-09-20T23:30:16.476Z,2.60
2018-09-20T23:32:45.977Z,2.57
2018-09-20T23:35:15.125Z,3.07
2018-09-20T23:37:44.069Z,3.10
2018-09-20T23:40:13.324Z,3.20
2018-09-20T23:42:42.171Z,2.57
2018-09-20T23:45:11.152Z,2.67
2018-09-20T23:47:39.975Z,2.27
2018-09-20T23:50:09.511Z,2.47
2018-09-20T23:52:38.372Z,3.23
2018-09-20T23:55:07.757Z,2.53
2018-09-20T23:57:36.660Z,2.57
